Weather at Alaçatı Airport

Public forecast

Using degrees Celsius for public forecast. Weather courtesy of forecast.io.

Closest aviation weather report (METAR) to Alaçatı Airport

Closest report is Chios Island National Airport, 14.7 nm (27.2 km) WNW. Retrieved 2021/04/17 13:50 UTC (1 hour ago):

LGHI 171350Z 18004KT CAVOK 22/11 Q1009

Closest aviation forecast (TAF) to Alaçatı Airport

Forecast is more than 12 hours old.

Closest forecast is Chios Island National Airport, 14.7 nm (27.2 km) WNW. Retrieved 2012/09/21 03:06 UTC (9 years ago):

TAF TAF LGHI 210200Z 2103/2115 VRB05KT 9999 SCT020 PROB30 TEMPO 2103/2106 7000 RA SCT018 BKN030 BECMG 2103/2105 30018KT